createdAt,value
2019-02-07T00:02:00.134Z,4.81
2019-02-07T00:04:51.139Z,4.80
2019-02-07T00:07:22.688Z,4.75
2019-02-07T00:09:59.987Z,4.74
2019-02-07T00:12:36.525Z,4.70
2019-02-07T00:15:11.427Z,4.69
2019-02-07T00:17:50.165Z,4.67
2019-02-07T00:20:22.947Z,4.66
2019-02-07T00:22:59.940Z,4.68
2019-02-07T00:25:32.920Z,4.67
2019-02-07T00:28:12.153Z,4.65
2019-02-07T00:30:45.796Z,4.65
2019-02-07T00:33:19.950Z,4.63
2019-02-07T00:35:58.496Z,4.64
2019-02-07T00:38:32.903Z,4.65
2019-02-07T00:41:08.651Z,4.66
2019-02-07T00:43:41.953Z,4.70
2019-02-07T00:46:18.133Z,4.67
2019-02-07T00:48:50.818Z,4.63
2019-02-07T00:51:45.342Z,4.61
2019-02-07T00:54:18.340Z,4.57
2019-02-07T00:57:05.290Z,4.56
2019-02-07T00:59:36.262Z,4.56
2019-02-07T01:02:23.017Z,4.57
2019-02-07T01:04:56.754Z,4.56
2019-02-07T01:07:45.984Z,4.58
2019-02-07T01:10:36.287Z,4.56
2019-02-07T01:13:12.156Z,4.55
2019-02-07T01:15:47.179Z,4.47
2019-02-07T01:18:21.671Z,4.40
2019-02-07T01:21:02.322Z,4.41
2019-02-07T01:23:42.019Z,4.42
2019-02-07T01:26:22.628Z,4.47
2019-02-07T01:29:02.145Z,4.47
2019-02-07T01:31:35.408Z,4.50
2019-02-07T01:34:14.360Z,4.52
2019-02-07T01:36:51.004Z,4.50
2019-02-07T01:39:25.687Z,4.48
2019-02-07T01:42:02.702Z,4.42
2019-02-07T01:44:36.295Z,4.38
2019-02-07T01:47:10.236Z,4.37
2019-02-07T01:49:44.153Z,4.39
2019-02-07T01:52:17.317Z,4.35
2019-02-07T01:54:54.194Z,4.32
2019-02-07T01:57:28.964Z,4.33
2019-02-07T02:00:00.213Z,4.34
2019-02-07T02:02:39.376Z,4.39
2019-02-07T02:05:14.023Z,4.33
2019-02-07T02:07:50.461Z,4.30
2019-02-07T02:10:28.477Z,4.27
2019-02-07T02:13:00.114Z,4.27
2019-02-07T02:15:33.301Z,4.29
2019-02-07T02:18:09.002Z,4.31
2019-02-07T02:20:41.496Z,4.31
2019-02-07T02:23:19.913Z,4.33
2019-02-07T02:25:53.539Z,4.38
2019-02-07T02:28:28.309Z,4.41
2019-02-07T02:31:00.107Z,4.42
2019-02-07T02:33:34.157Z,4.44
2019-02-07T02:36:09.242Z,4.45
2019-02-07T02:38:40.559Z,4.46
2019-02-07T02:41:31.829Z,4.47
2019-02-07T02:44:08.859Z,4.47
2019-02-07T02:46:41.724Z,4.47
2019-02-07T02:49:18.562Z,4.43
2019-02-07T02:51:53.735Z,4.39
2019-02-07T02:54:49.244Z,4.36
2019-02-07T02:57:26.354Z,4.34
2019-02-07T03:00:09.056Z,4.32
2019-02-07T03:02:57.694Z,4.31
2019-02-07T03:05:56.797Z,4.27
2019-02-07T03:08:53.299Z,4.22
2019-02-07T03:11:48.152Z,4.22
2019-02-07T03:14:43.039Z,4.23
2019-02-07T03:17:29.573Z,4.23
2019-02-07T03:20:16.973Z,4.26
2019-02-07T03:23:06.742Z,4.26
2019-02-07T03:25:59.664Z,4.25
2019-02-07T03:28:52.047Z,4.25
2019-02-07T03:31:52.581Z,4.28
2019-02-07T03:34:33.284Z,4.29
2019-02-07T03:37:27.668Z,4.30
2019-02-07T03:40:33.860Z,4.32
2019-02-07T03:43:24.336Z,4.36
2019-02-07T03:46:16.131Z,4.41
2019-02-07T03:49:07.071Z,4.38
2019-02-07T03:52:09.624Z,4.35
2019-02-07T03:54:59.244Z,4.34
2019-02-07T03:57:53.329Z,4.29
2019-02-07T04:00:41.957Z,4.31
2019-02-07T04:03:36.451Z,4.33
2019-02-07T04:06:22.462Z,4.34
2019-02-07T04:09:21.035Z,4.36
2019-02-07T04:12:24.698Z,4.35
2019-02-07T04:15:17.002Z,4.35
2019-02-07T04:18:14.066Z,4.37
2019-02-07T04:21:08.964Z,4.43
2019-02-07T04:24:07.686Z,4.46
2019-02-07T04:26:53.076Z,4.47
2019-02-07T04:29:44.005Z,4.51
2019-02-07T04:32:43.618Z,4.53
2019-02-07T04:35:42.296Z,4.56
2019-02-07T04:38:35.141Z,4.58
2019-02-07T04:41:35.861Z,4.65
2019-02-07T04:44:29.354Z,4.70
2019-02-07T04:47:27.291Z,4.71
2019-02-07T04:50:15.894Z,4.74
2019-02-07T04:53:21.102Z,4.71
2019-02-07T04:56:12.738Z,4.68
2019-02-07T04:59:02.352Z,4.68
2019-02-07T05:02:10.882Z,4.70
2019-02-07T05:05:04.279Z,4.75
2019-02-07T05:08:10.786Z,4.75
2019-02-07T05:11:10.061Z,4.67
2019-02-07T05:14:07.662Z,4.65
2019-02-07T05:17:04.164Z,4.65
2019-02-07T05:19:56.715Z,4.67
2019-02-07T05:26:36.506Z,4.66
2019-02-07T05:29:28.375Z,4.63
2019-02-07T05:32:29.891Z,4.63
2019-02-07T05:35:21.641Z,4.62
2019-02-07T05:41:46.190Z,4.64
2019-02-07T05:44:43.731Z,4.66
2019-02-07T05:47:57.059Z,4.64
2019-02-07T05:51:03.055Z,4.60
2019-02-07T05:53:56.514Z,4.60
2019-02-07T05:56:50.291Z,4.65
2019-02-07T05:59:54.461Z,4.69
2019-02-07T06:02:58.277Z,4.75
2019-02-07T06:06:36.765Z,4.79
2019-02-07T06:09:52.508Z,4.83
2019-02-07T06:13:05.722Z,4.86
2019-02-07T06:16:09.481Z,4.76
2019-02-07T06:19:17.221Z,4.78
2019-02-07T06:22:10.951Z,4.78
2019-02-07T06:25:20.212Z,4.82
2019-02-07T06:28:31.543Z,4.87
2019-02-07T06:31:20.743Z,4.88
2019-02-07T06:34:15.431Z,4.87
2019-02-07T06:37:00.691Z,4.92
2019-02-07T06:40:13.506Z,4.97
2019-02-07T06:43:09.839Z,5.02
2019-02-07T06:46:04.335Z,5.10
2019-02-07T06:48:59.545Z,5.21
2019-02-07T06:51:51.074Z,5.24
2019-02-07T06:54:44.196Z,5.20
2019-02-07T06:57:48.964Z,5.20
2019-02-07T07:00:45.781Z,5.21
2019-02-07T07:03:37.912Z,5.25
2019-02-07T07:06:26.792Z,5.32
2019-02-07T07:09:18.158Z,5.37
2019-02-07T07:12:14.733Z,5.38
2019-02-07T07:15:07.280Z,5.46
2019-02-07T07:18:03.276Z,5.52
2019-02-07T07:20:51.901Z,5.59
2019-02-07T07:23:48.991Z,5.60
2019-02-07T07:26:38.388Z,5.66
2019-02-07T07:29:28.903Z,5.74
2019-02-07T07:32:20.069Z,5.80
2019-02-07T07:35:15.635Z,5.90
2019-02-07T07:38:07.570Z,5.88
2019-02-07T07:41:15.419Z,5.87
2019-02-07T07:44:05.503Z,5.85
2019-02-07T07:46:58.907Z,5.87
2019-02-07T07:50:03.011Z,5.82
2019-02-07T07:52:53.151Z,5.80
2019-02-07T07:55:38.755Z,5.75
2019-02-07T07:58:45.248Z,5.72
2019-02-07T08:01:39.625Z,5.78
2019-02-07T08:04:26.009Z,5.78
2019-02-07T08:07:16.170Z,5.85
2019-02-07T08:10:10.567Z,5.88
2019-02-07T08:13:03.646Z,5.88
2019-02-07T08:15:58.077Z,5.85
2019-02-07T08:18:41.973Z,5.93
2019-02-07T08:21:32.040Z,5.93
2019-02-07T08:24:41.196Z,5.93
2019-02-07T08:27:30.108Z,5.97
2019-02-07T08:30:41.440Z,6.07
2019-02-07T08:33:41.966Z,6.12
2019-02-07T08:36:39.231Z,6.12
2019-02-07T08:39:35.535Z,6.10
2019-02-07T08:42:31.079Z,6.13
2019-02-07T08:45:37.725Z,6.17
2019-02-07T08:48:45.398Z,6.25
2019-02-07T08:51:32.581Z,6.26
2019-02-07T08:54:18.154Z,6.29
2019-02-07T08:57:40.865Z,6.29
2019-02-07T09:00:37.731Z,6.36
2019-02-07T09:03:45.808Z,6.38
2019-02-07T09:06:41.031Z,6.30
2019-02-07T09:09:36.390Z,6.39
2019-02-07T09:12:47.397Z,6.34
2019-02-07T09:15:46.355Z,6.41
2019-02-07T09:18:47.301Z,6.33
2019-02-07T09:22:14.456Z,6.39
2019-02-07T09:25:34.459Z,6.37
2019-02-07T09:28:38.899Z,6.39
2019-02-07T09:31:48.627Z,6.39
2019-02-07T09:34:46.811Z,6.45
2019-02-07T09:37:58.283Z,6.42
2019-02-07T09:41:13.146Z,6.48
2019-02-07T09:44:19.793Z,6.59
2019-02-07T09:47:06.638Z,6.71
2019-02-07T09:53:04.586Z,6.86
2019-02-07T09:56:00.483Z,6.99
2019-02-07T09:59:16.265Z,7.07
2019-02-07T10:02:16.773Z,7.23
2019-02-07T10:05:30.038Z,7.37
2019-02-07T10:08:32.387Z,7.46
2019-02-07T10:11:26.759Z,7.46
2019-02-07T10:14:21.573Z,7.34
2019-02-07T10:17:13.903Z,7.36
2019-02-07T10:20:09.640Z,7.25
2019-02-07T10:23:00.507Z,7.35
2019-02-07T10:25:58.893Z,7.50
2019-02-07T10:28:47.784Z,7.50
2019-02-07T10:31:31.696Z,7.34
2019-02-07T10:34:21.920Z,7.30
2019-02-07T10:37:16.273Z,7.36
2019-02-07T10:40:11.058Z,7.27
2019-02-07T10:43:02.542Z,7.25
2019-02-07T10:45:47.412Z,7.32
2019-02-07T10:48:44.642Z,7.50
2019-02-07T10:51:41.197Z,7.61
2019-02-07T10:54:25.038Z,7.70
2019-02-07T10:57:15.510Z,7.67
2019-02-07T11:00:12.343Z,7.44
2019-02-07T11:03:15.328Z,7.22
2019-02-07T11:06:13.118Z,6.98
2019-02-07T11:09:09.430Z,6.82
2019-02-07T11:12:01.858Z,6.91
2019-02-07T11:15:00.799Z,6.88
2019-02-07T11:17:48.751Z,6.78
2019-02-07T11:20:41.518Z,6.63
2019-02-07T11:23:31.477Z,6.56
2019-02-07T11:26:38.133Z,6.58
2019-02-07T11:29:37.165Z,6.62
2019-02-07T11:32:35.072Z,6.67
2019-02-07T11:35:28.782Z,6.71
2019-02-07T11:38:29.145Z,6.86
2019-02-07T11:41:35.122Z,6.89
2019-02-07T11:44:26.213Z,6.85
2019-02-07T11:47:27.325Z,6.88
2019-02-07T11:50:07.531Z,6.95
2019-02-07T11:52:54.380Z,7.10
2019-02-07T11:55:45.029Z,7.15
2019-02-07T11:58:42.850Z,6.97
2019-02-07T12:01:50.957Z,6.82
2019-02-07T12:04:43.614Z,6.94
2019-02-07T12:07:40.311Z,7.19
2019-02-07T12:10:34.697Z,7.38
2019-02-07T12:13:37.335Z,7.49
2019-02-07T12:16:38.810Z,7.57
2019-02-07T12:19:45.847Z,7.57
2019-02-07T12:22:51.679Z,7.57
2019-02-07T12:25:41.367Z,7.61
2019-02-07T12:28:57.224Z,7.66
2019-02-07T12:31:47.213Z,7.66
2019-02-07T12:34:44.125Z,7.64
2019-02-07T12:37:33.979Z,7.55
2019-02-07T12:41:24.111Z,7.70
2019-02-07T12:43:21.265Z,7.83
2019-02-07T12:46:20.364Z,7.97
2019-02-07T12:49:28.869Z,7.94
2019-02-07T12:52:42.312Z,7.97
2019-02-07T12:55:23.740Z,7.94
2019-02-07T12:58:22.519Z,7.80
2019-02-07T13:01:17.049Z,7.61
2019-02-07T13:04:18.109Z,7.54
2019-02-07T13:07:27.046Z,7.49
2019-02-07T13:10:39.030Z,7.28
2019-02-07T13:13:34.974Z,7.05
2019-02-07T13:16:48.968Z,6.90
2019-02-07T13:19:40.982Z,6.81
2019-02-07T13:22:55.860Z,6.81
2019-02-07T13:26:37.501Z,6.86
2019-02-07T13:30:02.530Z,7.03
2019-02-07T13:33:54.470Z,7.16
2019-02-07T13:36:09.202Z,7.07
2019-02-07T13:38:59.569Z,7.12
2019-02-07T13:58:10.661Z,7.24
2019-02-07T14:00:31.617Z,7.16
2019-02-07T14:04:20.789Z,7.17
2019-02-07T14:07:39.849Z,7.13
2019-02-07T14:11:46.304Z,7.11
2019-02-07T14:14:17.274Z,7.07
2019-02-07T14:17:44.735Z,7.05
2019-02-07T14:20:56.693Z,7.07
2019-02-07T14:24:08.114Z,7.02
2019-02-07T14:27:34.338Z,6.96
2019-02-07T14:31:14.191Z,6.99
2019-02-07T14:34:07.337Z,7.06
2019-02-07T14:38:06.577Z,7.07
2019-02-07T14:40:13.266Z,7.07
2019-02-07T14:45:18.295Z,7.10
2019-02-07T14:46:46.453Z,7.16
2019-02-07T14:49:20.869Z,7.24
2019-02-07T14:52:05.939Z,7.26
2019-02-07T14:55:39.835Z,7.29
2019-02-07T14:58:36.294Z,7.37
2019-02-07T15:01:29.332Z,7.42
2019-02-07T15:04:33.014Z,7.39
2019-02-07T15:06:59.179Z,7.41
2019-02-07T15:09:52.234Z,7.37
2019-02-07T15:12:49.496Z,7.34
2019-02-07T15:17:30.843Z,7.33
2019-02-07T15:19:15.684Z,7.33
2019-02-07T15:21:49.609Z,7.37
2019-02-07T15:24:46.149Z,7.40
2019-02-07T15:27:38.357Z,7.49
2019-02-07T15:30:27.334Z,7.55
2019-02-07T15:33:26.359Z,7.59
2019-02-07T15:36:15.487Z,7.55
2019-02-07T15:38:57.612Z,7.53
2019-02-07T15:41:35.521Z,7.54
2019-02-07T15:44:14.063Z,7.56
2019-02-07T15:46:47.892Z,7.53
2019-02-07T15:49:30.711Z,7.49
2019-02-07T15:52:09.511Z,7.44
2019-02-07T15:54:43.690Z,7.42
2019-02-07T15:57:21.459Z,7.39
2019-02-07T16:00:08.849Z,7.39
2019-02-07T16:05:48.489Z,7.34
2019-02-07T16:08:30.538Z,7.30
2019-02-07T16:11:23.799Z,7.28
2019-02-07T16:13:58.287Z,7.24
2019-02-07T16:16:31.013Z,7.28
2019-02-07T16:19:23.995Z,7.29
2019-02-07T16:22:08.026Z,7.32
2019-02-07T16:24:45.180Z,7.34
2019-02-07T16:27:18.589Z,7.36
2019-02-07T16:30:13.783Z,7.36
2019-02-07T16:32:52.795Z,7.32
2019-02-07T16:35:22.630Z,7.36
2019-02-07T16:37:57.124Z,7.35
2019-02-07T16:40:47.742Z,7.25
2019-02-07T16:43:21.143Z,7.22
2019-02-07T16:45:55.164Z,7.23
2019-02-07T16:48:35.559Z,7.23
2019-02-07T16:51:15.058Z,7.23
2019-02-07T16:53:53.160Z,7.23
2019-02-07T16:56:36.325Z,7.27
2019-02-07T16:59:12.899Z,7.29
2019-02-07T17:02:01.906Z,7.29
2019-02-07T17:07:46.957Z,7.22
2019-02-07T17:10:24.571Z,7.19
2019-02-07T17:14:38.251Z,7.20
2019-02-07T17:20:14.699Z,7.20
2019-02-07T17:26:13.417Z,7.10
2019-02-07T17:28:53.390Z,7.11
2019-02-07T17:31:54.442Z,7.17
2019-02-07T17:34:40.289Z,7.23
2019-02-07T17:38:01.075Z,7.27
2019-02-07T17:40:35.511Z,7.29
2019-02-07T17:43:19.018Z,7.17
2019-02-07T17:46:02.570Z,7.15
2019-02-07T17:48:37.641Z,7.14
2019-02-07T17:54:23.342Z,7.13
2019-02-07T17:56:58.867Z,7.12
2019-02-07T17:59:37.743Z,7.10
2019-02-07T18:05:36.664Z,7.04
2019-02-07T18:08:15.617Z,7.05
2019-02-07T18:11:08.789Z,7.03
2019-02-07T18:13:41.263Z,7.01
2019-02-07T18:16:15.415Z,7.02
2019-02-07T18:18:59.161Z,6.99
2019-02-07T18:21:34.349Z,6.98
2019-02-07T18:24:05.680Z,6.96
2019-02-07T18:26:41.242Z,6.92
2019-02-07T18:29:22.521Z,6.87
2019-02-07T18:31:57.464Z,6.88
2019-02-07T18:34:33.904Z,6.89
2019-02-07T18:37:20.923Z,6.91
2019-02-07T18:39:53.419Z,6.89
2019-02-07T18:43:03.455Z,6.87
2019-02-07T18:45:45.049Z,6.86
2019-02-07T18:48:17.478Z,6.82
2019-02-07T18:50:58.034Z,6.85
2019-02-07T18:53:35.650Z,6.96
2019-02-07T18:56:25.362Z,7.05
2019-02-07T18:59:00.689Z,7.10
2019-02-07T19:01:40.405Z,7.06
2019-02-07T19:04:25.978Z,7.01
2019-02-07T19:07:00.984Z,7.00
2019-02-07T19:09:49.676Z,6.98
2019-02-07T19:12:32.153Z,6.99
2019-02-07T19:15:07.552Z,6.95
2019-02-07T19:17:43.931Z,6.90
2019-02-07T19:20:17.728Z,6.85
2019-02-07T19:22:57.012Z,6.78
2019-02-07T19:25:41.517Z,6.71
2019-02-07T19:28:10.895Z,6.64
2019-02-07T19:30:51.462Z,6.62
2019-02-07T19:33:43.454Z,6.63
2019-02-07T19:36:28.497Z,6.60
2019-02-07T19:39:09.811Z,6.61
2019-02-07T19:41:49.926Z,6.65
2019-02-07T19:44:26.263Z,6.66
2019-02-07T19:46:57.710Z,6.65
2019-02-07T19:49:28.876Z,6.66
2019-02-07T19:52:08.219Z,6.63
2019-02-07T19:54:45.490Z,6.62
2019-02-07T19:57:20.993Z,6.63
2019-02-07T19:59:56.758Z,6.62
2019-02-07T20:02:34.967Z,6.61
2019-02-07T20:05:13.659Z,6.58
2019-02-07T20:07:45.637Z,6.58
2019-02-07T20:10:19.871Z,6.59
2019-02-07T20:12:53.490Z,6.60
2019-02-07T20:15:44.070Z,6.63
2019-02-07T20:18:22.728Z,6.61
2019-02-07T20:20:55.438Z,6.60
2019-02-07T20:23:28.019Z,6.56
2019-02-07T20:26:01.669Z,6.48
2019-02-07T20:28:32.796Z,6.44
2019-02-07T20:31:18.537Z,6.46
2019-02-07T20:33:58.192Z,6.42
2019-02-07T20:36:34.766Z,6.39
2019-02-07T20:39:13.118Z,6.41
2019-02-07T20:41:45.975Z,6.44
2019-02-07T20:44:18.711Z,6.45
2019-02-07T20:46:52.111Z,6.46
2019-02-07T20:49:27.622Z,6.45
2019-02-07T20:52:27.566Z,6.42
2019-02-07T20:54:58.642Z,6.37
2019-02-07T20:57:35.263Z,6.38
2019-02-07T21:00:56.084Z,6.34
2019-02-07T21:03:27.728Z,6.26
2019-02-07T21:06:05.166Z,6.26
2019-02-07T21:08:34.821Z,6.27
2019-02-07T21:11:12.160Z,6.26
2019-02-07T21:13:46.076Z,6.22
2019-02-07T21:16:17.088Z,6.23
2019-02-07T21:18:52.351Z,6.28
2019-02-07T21:21:40.698Z,6.26
2019-02-07T21:24:10.378Z,6.29
2019-02-07T21:26:44.058Z,6.27
2019-02-07T21:29:24.990Z,6.27
2019-02-07T21:32:13.699Z,6.23
2019-02-07T21:35:05.165Z,6.22
2019-02-07T21:37:39.148Z,6.19
2019-02-07T21:40:25.725Z,6.18
2019-02-07T21:43:04.347Z,6.14
2019-02-07T21:45:50.784Z,6.13
2019-02-07T21:48:28.310Z,6.11
2019-02-07T21:51:04.254Z,6.10
2019-02-07T21:53:48.956Z,6.12
2019-02-07T21:56:21.261Z,6.07
2019-02-07T21:58:56.398Z,6.11
2019-02-07T22:01:27.398Z,6.12
2019-02-07T22:04:09.072Z,6.15
2019-02-07T22:06:41.275Z,6.22
2019-02-07T22:09:19.643Z,6.23
2019-02-07T22:12:02.110Z,6.21
2019-02-07T22:14:37.113Z,6.18
2019-02-07T22:17:19.363Z,6.18
2019-02-07T22:19:51.165Z,6.15
2019-02-07T22:22:32.862Z,6.12
2019-02-07T22:25:08.332Z,6.09
2019-02-07T22:27:51.653Z,6.11
2019-02-07T22:30:29.370Z,6.08
2019-02-07T22:33:02.728Z,6.04
2019-02-07T22:35:34.270Z,6.05
2019-02-07T22:38:05.952Z,6.08
2019-02-07T22:40:38.270Z,6.04
2019-02-07T22:43:10.311Z,6.03
2019-02-07T22:45:46.756Z,6.05
2019-02-07T22:48:19.215Z,6.07
2019-02-07T22:50:53.281Z,6.13
2019-02-07T22:53:26.739Z,6.16
2019-02-07T22:56:01.057Z,6.15
2019-02-07T22:58:41.361Z,6.14
2019-02-07T23:01:48.452Z,6.15
2019-02-07T23:04:34.339Z,6.14
2019-02-07T23:07:12.346Z,6.17
2019-02-07T23:09:51.884Z,6.22
2019-02-07T23:12:24.181Z,6.22
2019-02-07T23:14:58.530Z,6.26
2019-02-07T23:17:31.857Z,6.27
2019-02-07T23:20:08.232Z,6.29
2019-02-07T23:22:45.730Z,6.29
2019-02-07T23:25:16.926Z,6.27
2019-02-07T23:27:55.405Z,6.30
2019-02-07T23:30:28.892Z,6.29
2019-02-07T23:33:00.327Z,6.31
2019-02-07T23:35:33.423Z,6.29
2019-02-07T23:38:15.557Z,6.30
2019-02-07T23:40:53.969Z,6.31
2019-02-07T23:43:28.229Z,6.28
2019-02-07T23:46:02.165Z,6.30
2019-02-07T23:48:36.761Z,6.31
2019-02-07T23:51:11.694Z,6.31
2019-02-07T23:53:42.755Z,6.29
2019-02-07T23:56:17.833Z,6.31
2019-02-07T23:58:52.596Z,6.30
